sensor_id;sensor_type;location;lat;lon;timestamp;P1;durP1;ratioP1;P2;durP2;ratioP2
16689;SDS011;8458;52.220;9.884;2022-10-16T00:00:11;0.80;;;0.80;;
16689;SDS011;8458;52.220;9.884;2022-10-16T00:02:38;0.80;;;0.40;;
16689;SDS011;8458;52.220;9.884;2022-10-16T00:05:05;0.47;;;0.47;;
16689;SDS011;8458;52.220;9.884;2022-10-16T00:07:32;0.83;;;0.50;;
16689;SDS011;8458;52.220;9.884;2022-10-16T00:09:58;1.03;;;0.50;;
16689;SDS011;8458;52.220;9.884;2022-10-16T00:12:26;0.70;;;0.50;;
16689;SDS011;8458;52.220;9.884;2022-10-16T00:14:53;0.50;;;0.50;;
16689;SDS011;8458;52.220;9.884;2022-10-16T00:17:20;0.77;;;0.63;;
16689;SDS011;8458;52.220;9.884;2022-10-16T00:19:46;0.60;;;0.50;;
16689;SDS011;8458;52.220;9.884;2022-10-16T00:22:12;0.60;;;0.60;;
16689;SDS011;8458;52.220;9.884;2022-10-16T00:24:39;2.23;;;0.70;;
16689;SDS011;8458;52.220;9.884;2022-10-16T00:27:05;0.77;;;0.70;;
16689;SDS011;8458;52.220;9.884;2022-10-16T00:29:33;0.87;;;0.57;;
16689;SDS011;8458;52.220;9.884;2022-10-16T00:31:59;0.97;;;0.60;;
16689;SDS011;8458;52.220;9.884;2022-10-16T00:34:26;1.10;;;0.70;;
16689;SDS011;8458;52.220;9.884;2022-10-16T00:36:52;1.23;;;0.50;;
16689;SDS011;8458;52.220;9.884;2022-10-16T00:39:19;0.50;;;0.50;;
16689;SDS011;8458;52.220;9.884;2022-10-16T00:41:45;0.50;;;0.50;;
16689;SDS011;8458;52.220;9.884;2022-10-16T00:47:10;1.37;;;0.60;;
16689;SDS011;8458;52.220;9.884;2022-10-16T00:49:38;0.50;;;0.50;;
16689;SDS011;8458;52.220;9.884;2022-10-16T00:52:05;0.50;;;0.50;;
16689;SDS011;8458;52.220;9.884;2022-10-16T00:54:32;0.67;;;0.43;;
16689;SDS011;8458;52.220;9.884;2022-10-16T00:56:59;1.40;;;0.63;;
16689;SDS011;8458;52.220;9.884;2022-10-16T00:59:28;0.93;;;0.50;;
16689;SDS011;8458;52.220;9.884;2022-10-16T01:01:58;0.70;;;0.40;;
16689;SDS011;8458;52.220;9.884;2022-10-16T01:04:25;0.57;;;0.53;;
16689;SDS011;8458;52.220;9.884;2022-10-16T01:06:58;0.50;;;0.43;;
16689;SDS011;8458;52.220;9.884;2022-10-16T01:09:35;0.70;;;0.43;;
16689;SDS011;8458;52.220;9.884;2022-10-16T01:12:11;0.87;;;0.80;;
16689;SDS011;8458;52.220;9.884;2022-10-16T01:14:44;0.60;;;0.60;;
16689;SDS011;8458;52.220;9.884;2022-10-16T01:17:16;0.60;;;0.60;;
16689;SDS011;8458;52.220;9.884;2022-10-16T01:19:50;1.37;;;0.70;;
16689;SDS011;8458;52.220;9.884;2022-10-16T01:22:29;1.00;;;0.60;;
16689;SDS011;8458;52.220;9.884;2022-10-16T01:25:04;1.23;;;0.60;;
16689;SDS011;8458;52.220;9.884;2022-10-16T01:27:37;1.03;;;0.80;;
16689;SDS011;8458;52.220;9.884;2022-10-16T01:30:10;0.60;;;0.60;;
16689;SDS011;8458;52.220;9.884;2022-10-16T01:32:41;0.73;;;0.60;;
16689;SDS011;8458;52.220;9.884;2022-10-16T01:35:14;0.67;;;0.67;;
16689;SDS011;8458;52.220;9.884;2022-10-16T01:37:48;0.70;;;0.70;;
16689;SDS011;8458;52.220;9.884;2022-10-16T01:40:19;0.77;;;0.60;;
16689;SDS011;8458;52.220;9.884;2022-10-16T01:42:48;1.07;;;0.50;;
16689;SDS011;8458;52.220;9.884;2022-10-16T01:45:19;1.17;;;0.70;;
16689;SDS011;8458;52.220;9.884;2022-10-16T01:47:46;0.70;;;0.70;;
16689;SDS011;8458;52.220;9.884;2022-10-16T01:50:16;0.70;;;0.60;;
16689;SDS011;8458;52.220;9.884;2022-10-16T01:52:45;0.57;;;0.57;;
16689;SDS011;8458;52.220;9.884;2022-10-16T01:55:17;0.87;;;0.70;;
16689;SDS011;8458;52.220;9.884;2022-10-16T01:57:51;0.60;;;0.60;;
16689;SDS011;8458;52.220;9.884;2022-10-16T02:00:21;0.50;;;0.50;;
16689;SDS011;8458;52.220;9.884;2022-10-16T02:02:49;0.83;;;0.70;;
16689;SDS011;8458;52.220;9.884;2022-10-16T02:05:21;0.60;;;0.60;;
16689;SDS011;8458;52.220;9.884;2022-10-16T02:07:52;1.17;;;0.87;;
16689;SDS011;8458;52.220;9.884;2022-10-16T02:10:18;1.73;;;0.90;;
16689;SDS011;8458;52.220;9.884;2022-10-16T02:12:45;1.10;;;1.00;;
16689;SDS011;8458;52.220;9.884;2022-10-16T02:15:17;0.80;;;0.80;;
16689;SDS011;8458;52.220;9.884;2022-10-16T02:17:44;0.80;;;0.80;;
16689;SDS011;8458;52.220;9.884;2022-10-16T02:20:11;1.00;;;0.90;;
16689;SDS011;8458;52.220;9.884;2022-10-16T02:22:38;1.03;;;1.00;;
16689;SDS011;8458;52.220;9.884;2022-10-16T02:25:08;1.00;;;0.93;;
16689;SDS011;8458;52.220;9.884;2022-10-16T02:27:39;1.83;;;1.00;;
16689;SDS011;8458;52.220;9.884;2022-10-16T02:30:11;1.07;;;0.87;;
16689;SDS011;8458;52.220;9.884;2022-10-16T02:32:43;1.33;;;0.80;;
16689;SDS011;8458;52.220;9.884;2022-10-16T02:35:12;1.73;;;0.87;;
16689;SDS011;8458;52.220;9.884;2022-10-16T02:37:40;3.17;;;0.80;;
16689;SDS011;8458;52.220;9.884;2022-10-16T02:40:08;1.00;;;0.90;;
16689;SDS011;8458;52.220;9.884;2022-10-16T02:42:37;1.43;;;0.83;;
16689;SDS011;8458;52.220;9.884;2022-10-16T02:45:04;1.00;;;0.80;;
16689;SDS011;8458;52.220;9.884;2022-10-16T02:47:32;0.87;;;0.80;;
16689;SDS011;8458;52.220;9.884;2022-10-16T02:50:00;1.20;;;1.00;;
16689;SDS011;8458;52.220;9.884;2022-10-16T02:52:27;1.57;;;1.00;;
16689;SDS011;8458;52.220;9.884;2022-10-16T02:54:53;1.53;;;0.80;;
16689;SDS011;8458;52.220;9.884;2022-10-16T02:57:19;1.60;;;0.90;;
16689;SDS011;8458;52.220;9.884;2022-10-16T02:59:46;1.23;;;1.07;;
16689;SDS011;8458;52.220;9.884;2022-10-16T03:02:12;1.10;;;1.00;;
16689;SDS011;8458;52.220;9.884;2022-10-16T03:04:39;0.80;;;0.80;;
16689;SDS011;8458;52.220;9.884;2022-10-16T03:07:07;1.77;;;0.80;;
16689;SDS011;8458;52.220;9.884;2022-10-16T03:09:33;0.87;;;0.73;;
16689;SDS011;8458;52.220;9.884;2022-10-16T03:12:00;1.70;;;0.87;;
16689;SDS011;8458;52.220;9.884;2022-10-16T03:14:26;3.40;;;1.53;;
16689;SDS011;8458;52.220;9.884;2022-10-16T03:16:52;1.50;;;0.90;;
16689;SDS011;8458;52.220;9.884;2022-10-16T03:19:19;1.23;;;0.83;;
16689;SDS011;8458;52.220;9.884;2022-10-16T03:21:45;2.60;;;1.07;;
16689;SDS011;8458;52.220;9.884;2022-10-16T03:24:13;1.03;;;0.80;;
16689;SDS011;8458;52.220;9.884;2022-10-16T03:26:40;1.37;;;0.90;;
16689;SDS011;8458;52.220;9.884;2022-10-16T03:29:06;2.40;;;1.30;;
16689;SDS011;8458;52.220;9.884;2022-10-16T03:31:33;1.57;;;0.90;;
16689;SDS011;8458;52.220;9.884;2022-10-16T03:34:00;1.23;;;1.07;;
16689;SDS011;8458;52.220;9.884;2022-10-16T03:36:26;1.93;;;1.10;;
16689;SDS011;8458;52.220;9.884;2022-10-16T03:38:53;1.17;;;0.93;;
16689;SDS011;8458;52.220;9.884;2022-10-16T03:41:20;1.10;;;1.00;;
16689;SDS011;8458;52.220;9.884;2022-10-16T03:43:47;1.20;;;1.00;;
16689;SDS011;8458;52.220;9.884;2022-10-16T03:46:13;0.80;;;0.80;;
16689;SDS011;8458;52.220;9.884;2022-10-16T03:48:40;1.87;;;1.20;;
16689;SDS011;8458;52.220;9.884;2022-10-16T03:51:06;2.17;;;1.00;;
16689;SDS011;8458;52.220;9.884;2022-10-16T03:53:33;1.73;;;0.83;;
16689;SDS011;8458;52.220;9.884;2022-10-16T03:55:59;1.63;;;1.10;;
16689;SDS011;8458;52.220;9.884;2022-10-16T03:58:27;2.03;;;0.90;;
16689;SDS011;8458;52.220;9.884;2022-10-16T04:00:54;2.73;;;1.13;;
16689;SDS011;8458;52.220;9.884;2022-10-16T04:03:20;1.10;;;1.10;;
16689;SDS011;8458;52.220;9.884;2022-10-16T04:05:47;1.87;;;1.10;;
16689;SDS011;8458;52.220;9.884;2022-10-16T04:08:14;1.20;;;0.90;;
16689;SDS011;8458;52.220;9.884;2022-10-16T04:10:42;0.90;;;0.90;;
16689;SDS011;8458;52.220;9.884;2022-10-16T04:13:09;1.13;;;0.87;;
16689;SDS011;8458;52.220;9.884;2022-10-16T04:15:37;1.90;;;1.00;;
16689;SDS011;8458;52.220;9.884;2022-10-16T04:18:03;1.73;;;0.90;;
16689;SDS011;8458;52.220;9.884;2022-10-16T04:20:30;1.97;;;0.93;;
16689;SDS011;8458;52.220;9.884;2022-10-16T04:22:57;1.43;;;0.80;;
16689;SDS011;8458;52.220;9.884;2022-10-16T04:25:23;0.97;;;0.80;;
16689;SDS011;8458;52.220;9.884;2022-10-16T04:27:52;1.37;;;0.90;;
16689;SDS011;8458;52.220;9.884;2022-10-16T04:30:19;1.57;;;0.93;;
16689;SDS011;8458;52.220;9.884;2022-10-16T04:32:48;0.80;;;0.80;;
16689;SDS011;8458;52.220;9.884;2022-10-16T04:35:15;1.80;;;1.00;;
16689;SDS011;8458;52.220;9.884;2022-10-16T04:37:42;0.80;;;0.80;;
16689;SDS011;8458;52.220;9.884;2022-10-16T04:40:08;1.63;;;0.93;;
16689;SDS011;8458;52.220;9.884;2022-10-16T04:42:35;1.17;;;0.90;;
16689;SDS011;8458;52.220;9.884;2022-10-16T04:45:02;2.80;;;1.00;;
16689;SDS011;8458;52.220;9.884;2022-10-16T04:47:28;0.80;;;0.80;;
16689;SDS011;8458;52.220;9.884;2022-10-16T04:49:56;0.87;;;0.87;;
16689;SDS011;8458;52.220;9.884;2022-10-16T04:52:23;2.00;;;0.93;;
16689;SDS011;8458;52.220;9.884;2022-10-16T04:54:51;1.20;;;0.83;;
16689;SDS011;8458;52.220;9.884;2022-10-16T04:57:18;1.87;;;0.80;;
16689;SDS011;8458;52.220;9.884;2022-10-16T04:59:45;1.90;;;0.90;;
16689;SDS011;8458;52.220;9.884;2022-10-16T05:02:11;2.30;;;0.90;;
16689;SDS011;8458;52.220;9.884;2022-10-16T05:04:38;1.40;;;0.80;;
16689;SDS011;8458;52.220;9.884;2022-10-16T05:07:06;1.10;;;0.80;;
16689;SDS011;8458;52.220;9.884;2022-10-16T05:09:32;0.70;;;0.70;;
16689;SDS011;8458;52.220;9.884;2022-10-16T05:11:58;0.90;;;0.80;;
16689;SDS011;8458;52.220;9.884;2022-10-16T05:14:25;0.90;;;0.90;;
16689;SDS011;8458;52.220;9.884;2022-10-16T05:16:52;1.23;;;0.90;;
16689;SDS011;8458;52.220;9.884;2022-10-16T05:19:18;1.57;;;0.97;;
16689;SDS011;8458;52.220;9.884;2022-10-16T05:21:45;1.53;;;0.90;;
16689;SDS011;8458;52.220;9.884;2022-10-16T05:24:13;1.67;;;1.00;;
16689;SDS011;8458;52.220;9.884;2022-10-16T05:26:40;1.17;;;1.00;;
16689;SDS011;8458;52.220;9.884;2022-10-16T05:29:06;0.90;;;0.90;;
16689;SDS011;8458;52.220;9.884;2022-10-16T05:31:33;0.90;;;0.90;;
16689;SDS011;8458;52.220;9.884;2022-10-16T05:33:59;1.60;;;1.13;;
16689;SDS011;8458;52.220;9.884;2022-10-16T05:36:26;2.53;;;0.90;;
16689;SDS011;8458;52.220;9.884;2022-10-16T05:38:53;1.30;;;0.90;;
16689;SDS011;8458;52.220;9.884;2022-10-16T05:41:21;1.10;;;1.00;;
16689;SDS011;8458;52.220;9.884;2022-10-16T05:43:50;1.00;;;0.80;;
16689;SDS011;8458;52.220;9.884;2022-10-16T05:46:19;1.93;;;1.27;;
16689;SDS011;8458;52.220;9.884;2022-10-16T05:48:46;1.23;;;1.00;;
16689;SDS011;8458;52.220;9.884;2022-10-16T05:51:13;1.00;;;0.90;;
16689;SDS011;8458;52.220;9.884;2022-10-16T05:53:40;1.70;;;1.10;;
16689;SDS011;8458;52.220;9.884;2022-10-16T05:56:08;1.00;;;1.00;;
16689;SDS011;8458;52.220;9.884;2022-10-16T05:58:37;1.00;;;1.00;;
16689;SDS011;8458;52.220;9.884;2022-10-16T06:01:06;1.77;;;1.00;;
16689;SDS011;8458;52.220;9.884;2022-10-16T06:03:33;2.70;;;1.00;;
16689;SDS011;8458;52.220;9.884;2022-10-16T06:06:06;1.83;;;0.97;;
16689;SDS011;8458;52.220;9.884;2022-10-16T06:08:33;1.07;;;0.77;;
16689;SDS011;8458;52.220;9.884;2022-10-16T06:11:00;0.87;;;0.80;;
16689;SDS011;8458;52.220;9.884;2022-10-16T06:13:27;1.43;;;0.80;;
16689;SDS011;8458;52.220;9.884;2022-10-16T06:15:56;2.00;;;1.07;;
16689;SDS011;8458;52.220;9.884;2022-10-16T06:18:23;0.80;;;0.80;;
16689;SDS011;8458;52.220;9.884;2022-10-16T06:20:50;1.70;;;1.07;;
16689;SDS011;8458;52.220;9.884;2022-10-16T06:23:16;1.63;;;0.80;;
16689;SDS011;8458;52.220;9.884;2022-10-16T06:25:42;0.73;;;0.73;;
16689;SDS011;8458;52.220;9.884;2022-10-16T06:28:09;1.10;;;1.00;;
16689;SDS011;8458;52.220;9.884;2022-10-16T06:30:35;1.33;;;0.80;;
16689;SDS011;8458;52.220;9.884;2022-10-16T06:33:03;0.90;;;0.60;;
16689;SDS011;8458;52.220;9.884;2022-10-16T06:35:29;1.30;;;0.90;;
16689;SDS011;8458;52.220;9.884;2022-10-16T06:37:57;1.60;;;0.80;;
16689;SDS011;8458;52.220;9.884;2022-10-16T06:40:23;0.70;;;0.70;;
16689;SDS011;8458;52.220;9.884;2022-10-16T06:42:49;0.80;;;0.80;;
16689;SDS011;8458;52.220;9.884;2022-10-16T06:45:16;0.97;;;0.80;;
16689;SDS011;8458;52.220;9.884;2022-10-16T06:47:43;0.67;;;0.67;;
16689;SDS011;8458;52.220;9.884;2022-10-16T06:50:11;1.37;;;0.70;;
16689;SDS011;8458;52.220;9.884;2022-10-16T06:52:37;0.67;;;0.67;;
16689;SDS011;8458;52.220;9.884;2022-10-16T06:55:04;0.70;;;0.70;;
16689;SDS011;8458;52.220;9.884;2022-10-16T06:57:31;0.90;;;0.80;;
16689;SDS011;8458;52.220;9.884;2022-10-16T06:59:57;0.60;;;0.60;;
16689;SDS011;8458;52.220;9.884;2022-10-16T07:02:24;0.93;;;0.57;;
16689;SDS011;8458;52.220;9.884;2022-10-16T07:04:50;1.00;;;0.50;;
16689;SDS011;8458;52.220;9.884;2022-10-16T07:07:18;0.80;;;0.70;;
16689;SDS011;8458;52.220;9.884;2022-10-16T07:09:44;0.80;;;0.63;;
16689;SDS011;8458;52.220;9.884;2022-10-16T07:12:11;0.73;;;0.73;;
16689;SDS011;8458;52.220;9.884;2022-10-16T07:14:37;0.60;;;0.60;;
16689;SDS011;8458;52.220;9.884;2022-10-16T07:17:04;1.17;;;0.67;;
16689;SDS011;8458;52.220;9.884;2022-10-16T07:19:30;0.60;;;0.60;;
16689;SDS011;8458;52.220;9.884;2022-10-16T07:21:56;0.50;;;0.50;;
16689;SDS011;8458;52.220;9.884;2022-10-16T07:24:24;1.23;;;0.50;;
16689;SDS011;8458;52.220;9.884;2022-10-16T07:26:51;0.63;;;0.50;;
16689;SDS011;8458;52.220;9.884;2022-10-16T07:29:18;0.40;;;0.40;;
16689;SDS011;8458;52.220;9.884;2022-10-16T07:31:46;0.50;;;0.50;;
16689;SDS011;8458;52.220;9.884;2022-10-16T07:34:14;0.50;;;0.43;;
16689;SDS011;8458;52.220;9.884;2022-10-16T07:36:43;0.47;;;0.47;;
16689;SDS011;8458;52.220;9.884;2022-10-16T07:39:09;2.10;;;0.40;;
16689;SDS011;8458;52.220;9.884;2022-10-16T07:41:37;0.50;;;0.40;;
16689;SDS011;8458;52.220;9.884;2022-10-16T07:44:03;0.53;;;0.40;;
16689;SDS011;8458;52.220;9.884;2022-10-16T07:46:31;0.43;;;0.40;;
16689;SDS011;8458;52.220;9.884;2022-10-16T07:48:58;0.30;;;0.30;;
16689;SDS011;8458;52.220;9.884;2022-10-16T07:51:25;1.33;;;0.50;;
16689;SDS011;8458;52.220;9.884;2022-10-16T07:53:52;1.00;;;0.60;;
16689;SDS011;8458;52.220;9.884;2022-10-16T07:56:20;0.87;;;0.40;;
16689;SDS011;8458;52.220;9.884;2022-10-16T07:58:49;1.33;;;0.40;;
16689;SDS011;8458;52.220;9.884;2022-10-16T08:01:16;1.43;;;0.50;;
16689;SDS011;8458;52.220;9.884;2022-10-16T08:03:43;0.50;;;0.33;;
16689;SDS011;8458;52.220;9.884;2022-10-16T08:06:10;0.43;;;0.30;;
16689;SDS011;8458;52.220;9.884;2022-10-16T08:08:37;1.07;;;0.30;;
16689;SDS011;8458;52.220;9.884;2022-10-16T08:11:04;0.60;;;0.40;;
16689;SDS011;8458;52.220;9.884;2022-10-16T08:13:31;0.50;;;0.50;;
16689;SDS011;8458;52.220;9.884;2022-10-16T08:15:59;0.70;;;0.30;;
16689;SDS011;8458;52.220;9.884;2022-10-16T08:18:26;1.23;;;0.30;;
16689;SDS011;8458;52.220;9.884;2022-10-16T08:20:55;0.63;;;0.40;;
16689;SDS011;8458;52.220;9.884;2022-10-16T08:23:23;0.93;;;0.50;;
16689;SDS011;8458;52.220;9.884;2022-10-16T08:25:51;0.30;;;0.30;;
16689;SDS011;8458;52.220;9.884;2022-10-16T08:28:18;0.60;;;0.30;;
16689;SDS011;8458;52.220;9.884;2022-10-16T08:30:44;0.60;;;0.40;;
16689;SDS011;8458;52.220;9.884;2022-10-16T08:33:12;1.33;;;0.40;;
16689;SDS011;8458;52.220;9.884;2022-10-16T08:35:39;0.87;;;0.40;;
16689;SDS011;8458;52.220;9.884;2022-10-16T08:38:05;2.83;;;0.40;;
16689;SDS011;8458;52.220;9.884;2022-10-16T08:40:33;0.33;;;0.30;;
16689;SDS011;8458;52.220;9.884;2022-10-16T08:43:08;0.77;;;0.50;;
16689;SDS011;8458;52.220;9.884;2022-10-16T08:45:50;0.30;;;0.30;;
16689;SDS011;8458;52.220;9.884;2022-10-16T08:48:31;0.73;;;0.40;;
16689;SDS011;8458;52.220;9.884;2022-10-16T08:51:06;0.30;;;0.30;;
16689;SDS011;8458;52.220;9.884;2022-10-16T08:53:40;0.67;;;0.40;;
16689;SDS011;8458;52.220;9.884;2022-10-16T08:56:11;0.50;;;0.50;;
16689;SDS011;8458;52.220;9.884;2022-10-16T08:58:37;0.97;;;0.70;;
16689;SDS011;8458;52.220;9.884;2022-10-16T09:01:04;1.40;;;0.80;;
16689;SDS011;8458;52.220;9.884;2022-10-16T09:03:47;0.87;;;0.87;;
16689;SDS011;8458;52.220;9.884;2022-10-16T09:06:30;1.10;;;0.60;;
16689;SDS011;8458;52.220;9.884;2022-10-16T09:09:06;2.17;;;0.87;;
16689;SDS011;8458;52.220;9.884;2022-10-16T09:11:45;1.00;;;0.73;;
16689;SDS011;8458;52.220;9.884;2022-10-16T09:14:19;0.80;;;0.60;;
16689;SDS011;8458;52.220;9.884;2022-10-16T09:17:03;0.70;;;0.40;;
16689;SDS011;8458;52.220;9.884;2022-10-16T09:19:42;0.60;;;0.50;;
16689;SDS011;8458;52.220;9.884;2022-10-16T09:22:13;0.40;;;0.40;;
16689;SDS011;8458;52.220;9.884;2022-10-16T09:24:41;1.27;;;0.30;;
16689;SDS011;8458;52.220;9.884;2022-10-16T09:27:08;0.43;;;0.40;;
16689;SDS011;8458;52.220;9.884;2022-10-16T09:29:37;1.20;;;0.70;;
16689;SDS011;8458;52.220;9.884;2022-10-16T09:32:07;0.83;;;0.63;;
16689;SDS011;8458;52.220;9.884;2022-10-16T09:34:39;0.43;;;0.40;;
16689;SDS011;8458;52.220;9.884;2022-10-16T09:37:12;2.27;;;0.40;;
16689;SDS011;8458;52.220;9.884;2022-10-16T09:39:46;0.50;;;0.50;;
16689;SDS011;8458;52.220;9.884;2022-10-16T09:42:15;0.90;;;0.70;;
16689;SDS011;8458;52.220;9.884;2022-10-16T09:44:46;1.77;;;0.80;;
16689;SDS011;8458;52.220;9.884;2022-10-16T09:47:15;0.93;;;0.50;;
16689;SDS011;8458;52.220;9.884;2022-10-16T09:49:52;0.40;;;0.40;;
16689;SDS011;8458;52.220;9.884;2022-10-16T09:52:21;1.30;;;0.50;;
16689;SDS011;8458;52.220;9.884;2022-10-16T09:54:49;1.73;;;0.57;;
16689;SDS011;8458;52.220;9.884;2022-10-16T09:57:17;0.63;;;0.50;;
16689;SDS011;8458;52.220;9.884;2022-10-16T09:59:46;1.07;;;0.60;;
16689;SDS011;8458;52.220;9.884;2022-10-16T10:02:14;0.50;;;0.50;;
16689;SDS011;8458;52.220;9.884;2022-10-16T10:04:44;1.17;;;0.47;;
16689;SDS011;8458;52.220;9.884;2022-10-16T10:07:20;0.50;;;0.40;;
16689;SDS011;8458;52.220;9.884;2022-10-16T10:09:50;0.53;;;0.40;;
16689;SDS011;8458;52.220;9.884;2022-10-16T10:12:17;1.33;;;0.60;;
16689;SDS011;8458;52.220;9.884;2022-10-16T10:14:47;0.80;;;0.40;;
16689;SDS011;8458;52.220;9.884;2022-10-16T10:17:15;0.77;;;0.30;;
16689;SDS011;8458;52.220;9.884;2022-10-16T10:19:46;0.40;;;0.20;;
16689;SDS011;8458;52.220;9.884;2022-10-16T10:22:19;0.33;;;0.27;;
16689;SDS011;8458;52.220;9.884;2022-10-16T10:30:49;1.10;;;0.40;;
16689;SDS011;8458;52.220;9.884;2022-10-16T10:33:25;0.63;;;0.30;;
16689;SDS011;8458;52.220;9.884;2022-10-16T10:36:01;1.07;;;0.40;;
16689;SDS011;8458;52.220;9.884;2022-10-16T10:38:41;1.07;;;0.30;;
16689;SDS011;8458;52.220;9.884;2022-10-16T10:44:21;0.93;;;0.30;;
16689;SDS011;8458;52.220;9.884;2022-10-16T10:47:01;1.00;;;0.30;;
16689;SDS011;8458;52.220;9.884;2022-10-16T10:49:40;1.03;;;0.30;;
16689;SDS011;8458;52.220;9.884;2022-10-16T10:52:24;0.77;;;0.20;;
16689;SDS011;8458;52.220;9.884;2022-10-16T10:55:13;0.50;;;0.20;;
16689;SDS011;8458;52.220;9.884;2022-10-16T10:57:51;1.20;;;0.30;;
16689;SDS011;8458;52.220;9.884;2022-10-16T11:00:34;0.40;;;0.20;;
16689;SDS011;8458;52.220;9.884;2022-10-16T11:03:13;0.93;;;0.60;;
16689;SDS011;8458;52.220;9.884;2022-10-16T11:05:54;0.23;;;0.23;;
16689;SDS011;8458;52.220;9.884;2022-10-16T11:08:26;0.33;;;0.20;;
16689;SDS011;8458;52.220;9.884;2022-10-16T11:11:00;1.27;;;0.30;;
16689;SDS011;8458;52.220;9.884;2022-10-16T11:13:30;1.00;;;0.53;;
16689;SDS011;8458;52.220;9.884;2022-10-16T11:16:02;0.63;;;0.40;;
16689;SDS011;8458;52.220;9.884;2022-10-16T11:18:40;0.90;;;0.40;;
16689;SDS011;8458;52.220;9.884;2022-10-16T11:21:15;1.43;;;0.30;;
16689;SDS011;8458;52.220;9.884;2022-10-16T11:23:47;1.13;;;0.30;;
16689;SDS011;8458;52.220;9.884;2022-10-16T11:26:23;0.67;;;0.20;;
16689;SDS011;8458;52.220;9.884;2022-10-16T11:28:52;1.60;;;0.37;;
16689;SDS011;8458;52.220;9.884;2022-10-16T11:31:24;1.13;;;0.30;;
16689;SDS011;8458;52.220;9.884;2022-10-16T11:33:59;0.40;;;0.20;;
16689;SDS011;8458;52.220;9.884;2022-10-16T11:36:32;1.30;;;0.30;;
16689;SDS011;8458;52.220;9.884;2022-10-16T11:39:03;0.80;;;0.20;;
16689;SDS011;8458;52.220;9.884;2022-10-16T11:41:39;0.70;;;0.53;;
16689;SDS011;8458;52.220;9.884;2022-10-16T11:44:15;0.73;;;0.20;;
16689;SDS011;8458;52.220;9.884;2022-10-16T11:47:01;0.73;;;0.30;;
16689;SDS011;8458;52.220;9.884;2022-10-16T11:49:36;0.60;;;0.20;;
16689;SDS011;8458;52.220;9.884;2022-10-16T11:52:06;1.07;;;0.10;;
16689;SDS011;8458;52.220;9.884;2022-10-16T11:54:39;0.40;;;0.10;;
16689;SDS011;8458;52.220;9.884;2022-10-16T11:57:13;0.70;;;0.30;;
16689;SDS011;8458;52.220;9.884;2022-10-16T11:59:45;0.20;;;0.10;;
16689;SDS011;8458;52.220;9.884;2022-10-16T12:02:23;0.63;;;0.20;;
16689;SDS011;8458;52.220;9.884;2022-10-16T12:05:03;0.80;;;0.20;;
16689;SDS011;8458;52.220;9.884;2022-10-16T12:07:39;0.77;;;0.20;;
16689;SDS011;8458;52.220;9.884;2022-10-16T12:10:18;0.67;;;0.10;;
16689;SDS011;8458;52.220;9.884;2022-10-16T12:12:49;0.60;;;0.20;;
16689;SDS011;8458;52.220;9.884;2022-10-16T12:15:20;0.10;;;0.10;;
16689;SDS011;8458;52.220;9.884;2022-10-16T12:17:49;0.40;;;0.20;;
16689;SDS011;8458;52.220;9.884;2022-10-16T12:20:21;0.80;;;0.30;;
16689;SDS011;8458;52.220;9.884;2022-10-16T12:22:52;0.10;;;0.10;;
16689;SDS011;8458;52.220;9.884;2022-10-16T12:25:21;0.20;;;0.10;;
16689;SDS011;8458;52.220;9.884;2022-10-16T12:27:55;1.40;;;0.20;;
16689;SDS011;8458;52.220;9.884;2022-10-16T12:30:24;1.30;;;0.20;;
16689;SDS011;8458;52.220;9.884;2022-10-16T12:32:53;0.43;;;0.20;;
16689;SDS011;8458;52.220;9.884;2022-10-16T12:35:21;0.30;;;0.20;;
16689;SDS011;8458;52.220;9.884;2022-10-16T12:37:50;0.27;;;0.10;;
16689;SDS011;8458;52.220;9.884;2022-10-16T12:40:23;1.30;;;0.20;;
16689;SDS011;8458;52.220;9.884;2022-10-16T12:42:53;1.10;;;0.20;;
16689;SDS011;8458;52.220;9.884;2022-10-16T12:45:25;0.57;;;0.20;;
16689;SDS011;8458;52.220;9.884;2022-10-16T12:47:54;1.10;;;0.20;;
16689;SDS011;8458;52.220;9.884;2022-10-16T12:50:23;0.63;;;0.10;;
16689;SDS011;8458;52.220;9.884;2022-10-16T12:52:59;1.60;;;0.20;;
16689;SDS011;8458;52.220;9.884;2022-10-16T12:55:26;0.70;;;0.20;;
16689;SDS011;8458;52.220;9.884;2022-10-16T12:58:00;1.27;;;0.20;;
16689;SDS011;8458;52.220;9.884;2022-10-16T13:00:39;1.70;;;0.23;;
16689;SDS011;8458;52.220;9.884;2022-10-16T13:03:29;0.20;;;0.10;;
16689;SDS011;8458;52.220;9.884;2022-10-16T13:06:13;0.10;;;0.10;;
16689;SDS011;8458;52.220;9.884;2022-10-16T13:08:51;0.27;;;0.20;;
16689;SDS011;8458;52.220;9.884;2022-10-16T13:11:30;1.47;;;0.20;;
16689;SDS011;8458;52.220;9.884;2022-10-16T13:14:16;0.20;;;0.10;;
16689;SDS011;8458;52.220;9.884;2022-10-16T13:16:57;1.20;;;0.20;;
16689;SDS011;8458;52.220;9.884;2022-10-16T13:19:33;1.50;;;0.13;;
16689;SDS011;8458;52.220;9.884;2022-10-16T13:22:08;1.30;;;0.10;;
16689;SDS011;8458;52.220;9.884;2022-10-16T13:24:48;0.50;;;0.10;;
16689;SDS011;8458;52.220;9.884;2022-10-16T13:27:30;0.20;;;0.10;;
16689;SDS011;8458;52.220;9.884;2022-10-16T13:30:09;0.40;;;0.20;;
16689;SDS011;8458;52.220;9.884;2022-10-16T13:32:43;0.23;;;0.10;;
16689;SDS011;8458;52.220;9.884;2022-10-16T13:35:19;0.63;;;0.20;;
16689;SDS011;8458;52.220;9.884;2022-10-16T13:37:47;0.40;;;0.10;;
16689;SDS011;8458;52.220;9.884;2022-10-16T13:40:17;0.60;;;0.20;;
16689;SDS011;8458;52.220;9.884;2022-10-16T13:42:45;0.17;;;0.10;;
16689;SDS011;8458;52.220;9.884;2022-10-16T13:45:17;0.27;;;0.10;;
16689;SDS011;8458;52.220;9.884;2022-10-16T13:47:45;0.73;;;0.27;;
16689;SDS011;8458;52.220;9.884;2022-10-16T13:50:12;1.13;;;0.10;;
16689;SDS011;8458;52.220;9.884;2022-10-16T13:52:41;1.10;;;0.20;;
16689;SDS011;8458;52.220;9.884;2022-10-16T13:55:10;1.30;;;0.30;;
16689;SDS011;8458;52.220;9.884;2022-10-16T13:57:37;0.27;;;0.10;;
16689;SDS011;8458;52.220;9.884;2022-10-16T14:00:16;0.80;;;0.20;;
16689;SDS011;8458;52.220;9.884;2022-10-16T14:02:45;0.43;;;0.23;;
16689;SDS011;8458;52.220;9.884;2022-10-16T14:05:17;0.50;;;0.30;;
16689;SDS011;8458;52.220;9.884;2022-10-16T14:07:44;0.43;;;0.30;;
16689;SDS011;8458;52.220;9.884;2022-10-16T14:10:20;1.03;;;0.10;;
16689;SDS011;8458;52.220;9.884;2022-10-16T14:12:56;1.60;;;0.30;;
16689;SDS011;8458;52.220;9.884;2022-10-16T14:15:24;1.07;;;0.30;;
16689;SDS011;8458;52.220;9.884;2022-10-16T14:17:52;0.40;;;0.20;;
16689;SDS011;8458;52.220;9.884;2022-10-16T14:20:20;0.57;;;0.30;;
16689;SDS011;8458;52.220;9.884;2022-10-16T14:22:57;1.63;;;0.20;;
16689;SDS011;8458;52.220;9.884;2022-10-16T14:25:26;0.50;;;0.20;;
16689;SDS011;8458;52.220;9.884;2022-10-16T14:27:59;1.50;;;0.20;;
16689;SDS011;8458;52.220;9.884;2022-10-16T14:30:27;0.80;;;0.20;;
16689;SDS011;8458;52.220;9.884;2022-10-16T14:32:56;0.33;;;0.20;;
16689;SDS011;8458;52.220;9.884;2022-10-16T14:35:26;0.83;;;0.20;;
16689;SDS011;8458;52.220;9.884;2022-10-16T14:37:55;0.57;;;0.17;;
16689;SDS011;8458;52.220;9.884;2022-10-16T14:40:23;1.10;;;0.20;;
16689;SDS011;8458;52.220;9.884;2022-10-16T14:42:51;1.07;;;0.20;;
16689;SDS011;8458;52.220;9.884;2022-10-16T14:45:19;0.33;;;0.20;;
16689;SDS011;8458;52.220;9.884;2022-10-16T14:47:50;0.30;;;0.30;;
16689;SDS011;8458;52.220;9.884;2022-10-16T14:50:21;0.80;;;0.50;;
16689;SDS011;8458;52.220;9.884;2022-10-16T14:52:48;0.57;;;0.20;;
16689;SDS011;8458;52.220;9.884;2022-10-16T14:55:15;0.30;;;0.20;;
16689;SDS011;8458;52.220;9.884;2022-10-16T14:57:42;0.80;;;0.30;;
16689;SDS011;8458;52.220;9.884;2022-10-16T15:00:13;1.37;;;0.20;;
16689;SDS011;8458;52.220;9.884;2022-10-16T15:02:44;0.97;;;0.30;;
16689;SDS011;8458;52.220;9.884;2022-10-16T15:05:12;0.80;;;0.40;;
16689;SDS011;8458;52.220;9.884;2022-10-16T15:07:43;0.40;;;0.30;;
16689;SDS011;8458;52.220;9.884;2022-10-16T15:10:10;0.70;;;0.30;;
16689;SDS011;8458;52.220;9.884;2022-10-16T15:12:37;0.40;;;0.20;;
16689;SDS011;8458;52.220;9.884;2022-10-16T15:18:02;0.97;;;0.20;;
16689;SDS011;8458;52.220;9.884;2022-10-16T15:20:30;1.90;;;0.40;;
16689;SDS011;8458;52.220;9.884;2022-10-16T15:23:00;0.80;;;0.40;;
16689;SDS011;8458;52.220;9.884;2022-10-16T15:25:29;0.50;;;0.43;;
16689;SDS011;8458;52.220;9.884;2022-10-16T15:27:58;0.60;;;0.40;;
16689;SDS011;8458;52.220;9.884;2022-10-16T15:30:25;0.60;;;0.20;;